地図

経路データ

SID SEASON NUMBER BASIN SUBBASIN NAME ISO_TIME NATURE LAT LON WMO_WIND WMO_PRES WMO_AGENCY TRACK_TYPE DIST2LAND LANDFALL IFLAG USA_AGENCY USA_ATCF_ID USA_LAT USA_LON USA_RECORD USA_STATUS USA_WIND USA_PRES USA_SSHS USA_R34_NE USA_R34_SE USA_R34_SW USA_R34_NW USA_R50_NE USA_R50_SE USA_R50_SW USA_R50_NW USA_R64_NE USA_R64_SE USA_R64_SW USA_R64_NW USA_POCI USA_ROCI USA_RMW USA_EYE TOKYO_LAT TOKYO_LON TOKYO_GRADE TOKYO_WIND TOKYO_PRES TOKYO_R50_DIR TOKYO_R50_LONG TOKYO_R50_SHORT TOKYO_R30_DIR TOKYO_R30_LONG TOKYO_R30_SHORT TOKYO_LAND CMA_LAT CMA_LON CMA_CAT CMA_WIND CMA_PRES HKO_LAT HKO_LON HKO_CAT HKO_WIND HKO_PRES NEWDELHI_LAT NEWDELHI_LON NEWDELHI_GRADE NEWDELHI_WIND NEWDELHI_PRES NEWDELHI_CI NEWDELHI_DP NEWDELHI_POCI REUNION_LAT REUNION_LON REUNION_TYPE REUNION_WIND REUNION_PRES REUNION_TNUM REUNION_CI REUNION_RMW REUNION_R34_NE REUNION_R34_SE REUNION_R34_SW REUNION_R34_NW REUNION_R50_NE REUNION_R50_SE REUNION_R50_SW REUNION_R50_NW REUNION_R64_NE REUNION_R64_SE REUNION_R64_SW REUNION_R64_NW BOM_LAT BOM_LON BOM_TYPE BOM_WIND BOM_PRES BOM_TNUM BOM_CI BOM_RMW BOM_R34_NE BOM_R34_SE BOM_R34_SW BOM_R34_NW BOM_R50_NE BOM_R50_SE BOM_R50_SW BOM_R50_NW BOM_R64_NE BOM_R64_SE BOM_R64_SW BOM_R64_NW BOM_ROCI BOM_POCI BOM_EYE BOM_POS_METHOD BOM_PRES_METHOD NADI_LAT NADI_LON NADI_CAT NADI_WIND NADI_PRES WELLINGTON_LAT WELLINGTON_LON WELLINGTON_WIND WELLINGTON_PRES DS824_LAT DS824_LON DS824_STAGE DS824_WIND DS824_PRES TD9636_LAT TD9636_LON TD9636_STAGE TD9636_WIND TD9636_PRES TD9635_LAT TD9635_LON TD9635_WIND TD9635_PRES TD9635_ROCI NEUMANN_LAT NEUMANN_LON NEUMANN_CLASS NEUMANN_WIND NEUMANN_PRES MLC_LAT MLC_LON MLC_CLASS MLC_WIND MLC_PRES USA_GUST BOM_GUST BOM_GUST_PER REUNION_GUST REUNION_GUST_PER USA_SEAHGT USA_SEARAD_NE USA_SEARAD_SE USA_SEARAD_SW USA_SEARAD_NW STORM_SPEED STORM_DIR
1954284S07076 1955 78 SI MM NOT_NAMED 1954-10-11 06:00:00 TS -7.10000 75.6000 main 1558 1558 O________OO___ jtwc_sh SH021955 -7.10000 75.6000 -1 -7.10000 75.6000 TC 25 -7.10000 75.6000 7 9 257
1954284S07076 1955 78 SI MM NOT_NAMED 1954-10-11 09:00:00 TS -7.20316 75.1520 main 1583 1583 P________PP___ SH021955 -7.19757 75.1600 -1 -7.19757 75.1600 TC 25 -7.21434 75.1361 7 9 257
1954284S07076 1955 78 SI MM NOT_NAMED 1954-10-11 12:00:00 TS -7.30759 74.6892 main 1614 1614 O________OP___ jtwc_sh SH021955 -7.30000 74.7000 -1 -7.30000 74.7000 TC 25 -7.32278 74.6677 7 10 258
1954284S07076 1955 78 SI MM NOT_NAMED 1954-10-11 15:00:00 TS -7.41159 74.2018 main 1647 1647 P________PP___ SH021955 -7.40747 74.2075 -1 -7.40747 74.2075 TC 25 -7.41982 74.1904 7 10 259
1954284S07076 1955 78 SI MM NOT_NAMED 1954-10-11 18:00:00 TS -7.50000 73.7000 main 1680 1680 O________OO___ jtwc_sh SH021955 -7.50000 73.7000 -1 -7.50000 73.7000 TC 25 -7.50000 73.7000 1 10 262
1954284S07076 1955 78 SI MM NOT_NAMED 1954-10-11 21:00:00 TS -7.55839 73.1983 main 1715 1715 P________PP___ SH021955 -7.55744 73.2000 -1 -7.55744 73.2000 TC 25 -7.56027 73.1949 1 10 264
1954284S07076 1955 78 SI MM NOT_NAMED 1954-10-12 00:00:00 TS -7.60249 72.6949 main 1742 1742 O________OP___ jtwc_sh SH021955 -7.60000 72.7000 -1 -7.60000 72.7000 TC 25 -7.60747 72.6848 1 10 265
1954284S07076 1955 78 SI MM NOT_NAMED 1954-10-12 03:00:00 TS -7.65030 72.1841 main 1779 1779 P________PP___ SH021955 -7.64999 72.1850 -1 -7.64999 72.1850 TC 25 -7.65091 72.1824 1 10 264
1954284S07076 1955 78 SI MM NOT_NAMED 1954-10-12 06:00:00 TS -7.70000 71.7000 main 1807 1807 O________OO___ jtwc_sh SH021955 -7.70000 71.7000 -1 -7.70000 71.7000 TC 25 -7.70000 71.7000 1 9 264
1954284S07076 1955 78 SI MM NOT_NAMED 1954-10-12 09:00:00 TS -7.75214 71.2795 main 1841 1841 P________PP___ SH021955 -7.74240 71.2925 -1 -7.74240 71.2925 TC 25 -7.77163 71.2535 1 8 262
1954284S07076 1955 78 SI MM NOT_NAMED 1954-10-12 12:00:00 TS -7.81656 70.8758 main 1865 1865 O________OP___ jtwc_sh SH021955 -7.80000 70.9000 -1 -7.80000 70.9000 TC 25 -7.84969 70.8275 1 9 259
1954284S07076 1955 78 SI MM NOT_NAMED 1954-10-12 15:00:00 TS -7.90930 70.4376 main 1906 1894 P________PP___ SH021955 -7.90000 70.4500 -1 -7.90000 70.4500 TC 25 -7.92791 70.4128 1 9 258
1954284S07076 1955 78 SI MM NOT_NAMED 1954-10-12 18:00:00 TS -8.00000 70.0000 main 1894 1856 O________OO___ jtwc_sh SH021955 -8.00000 70.0000 -1 -8.00000 70.0000 TC 25 -8.00000 70.0000 1 8 260
1954284S07076 1955 78 SI MM NOT_NAMED 1954-10-12 21:00:00 TS -8.06129 69.5998 main 1856 1826 P________PP___ SH021955 -8.05742 69.6000 -1 -8.05742 69.6000 TC 25 -8.06905 69.5994 1 8 262
1954284S07076 1955 78 SI MM NOT_NAMED 1954-10-13 00:00:00 TS -8.10984 69.1983 main 1826 1789 O________OP___ jtwc_sh SH021955 -8.10000 69.2000 -1 -8.10000 69.2000 TC 25 -8.12951 69.1950 1 8 263
1954284S07076 1955 78 SI MM NOT_NAMED 1954-10-13 03:00:00 TS -8.16336 68.7710 main 1789 1753 P________PP___ SH021955 -8.15742 68.7725 -1 -8.15742 68.7725 TC 25 -8.17523 68.7681 1 9 264
1954284S07076 1955 78 SI MM NOT_NAMED 1954-10-13 06:00:00 TS -8.20000 68.3000 main 1753 1719 O________OO___ jtwc_sh SH021955 -8.20000 68.3000 -1 -8.20000 68.3000 TC 25 -8.20000 68.3000 1 10 267
1954284S07076 1955 78 SI MM NOT_NAMED 1954-10-13 09:00:00 TS -8.21155 67.7697 main 1719 1679 P________PP___ SH021955 -8.21495 67.7725 -1 -8.21495 67.7725 TC 25 -8.20475 67.7640 1 11 270
1954284S07076 1955 78 SI MM NOT_NAMED 1954-10-13 12:00:00 TS -8.19586 67.1958 main 1679 1640 O________OP___ jtwc_sh SH021955 -8.20000 67.2000 -1 -8.20000 67.2000 TC 25 -8.18758 67.1874 1 12 273
1954284S07076 1955 78 SI MM NOT_NAMED 1954-10-13 15:00:00 TS -8.16051 66.5974 main 1640 1613 P________PP___ SH021955 -8.16498 66.6000 -1 -8.16498 66.6000 TC 25 -8.15159 66.5921 1 12 275
1954284S07076 1955 78 SI MM NOT_NAMED 1954-10-13 18:00:00 TS -8.10000 66.0000 main 1613 1593 O________OO___ jtwc_sh SH021955 -8.10000 66.0000 -1 -8.10000 66.0000 TC 25 -8.10000 66.0000 1 11 278
1954284S07076 1955 78 SI MM NOT_NAMED 1954-10-13 21:00:00 TS -8.00870 65.4614 main 1593 1575 P________PP___ SH021955 -7.99990 65.4425 -1 -7.99990 65.4425 TC 25 -8.02629 65.4994 1 11 280
1954284S07076 1955 78 SI MM NOT_NAMED 1954-10-14 00:00:00 TS -7.91371 64.9324 main 1570 1549 O________OP___ jtwc_sh SH021955 -7.90000 64.9000 -1 -7.90000 64.9000 TC 25 -7.94114 64.9971 1 10 279
1954284S07076 1955 78 SI MM NOT_NAMED 1954-10-14 03:00:00 TS -7.84325 64.4221 main 1554 1525 P________PP___ SH021955 -7.83463 64.4100 -1 -7.83463 64.4100 TC 25 -7.86048 64.4462 1 11 276
1954284S07076 1955 78 SI MM NOT_NAMED 1954-10-14 06:00:00 TS -7.80000 63.8000 main 1525 1486 O________OO___ jtwc_sh SH021955 -7.80000 63.8000 -1 -7.80000 63.8000 TC 25 -7.80000 63.8000 1 15 272
1954284S07076 1955 78 SI MM NOT_NAMED 1954-10-14 09:00:00 TS -7.78588 62.8816 main 1486 1436 P________PP___ SH021955 -7.79273 62.8950 -1 -7.79273 62.8950 TC 25 -7.77218 62.8548 1 19 270
1954284S07076 1955 78 SI MM NOT_NAMED 1954-10-14 12:00:00 TS -7.78838 61.8784 main 1436 1346 O________OP___ jtwc_sh SH021955 -7.80000 61.9000 -1 -7.80000 61.9000 TC 25 -7.76514 61.8353 1 20 270
1954284S07076 1955 78 SI MM NOT_NAMED 1954-10-14 15:00:00 TS -7.78687 60.9094 main 1337 1268 P________PP___ SH021955 -7.79271 60.9151 -1 -7.79271 60.9151 TC 25 -7.77520 60.8982 1 17 270
1954284S07076 1955 78 SI MM NOT_NAMED 1954-10-14 18:00:00 TS -7.80000 60.2000 main 1268 1249 O________OO___ jtwc_sh SH021955 -7.80000 60.2000 -1 -7.80000 60.2000 TC 25 -7.80000 60.2000 1 9 266
1954284S07076 1955 78 SI MM NOT_NAMED 1954-10-14 21:00:00 TS -7.84233 60.0000 main 1249 1243 P________PP___ SH021955 -7.84221 60.0150 -1 -7.84221 60.0150 TC 25 -7.84257 59.9699 1 2 234
1954284S07076 1955 78 SI MM NOT_NAMED 1954-10-15 00:00:00 TS -7.89958 60.0609 main 1253 1248 O________OP___ jtwc_sh SH021955 -7.90000 60.1000 -1 -7.90000 60.1000 TC 25 -7.89875 59.9826 1 2 129
1954284S07076 1955 78 SI MM NOT_NAMED 1954-10-15 03:00:00 TS -7.95685 60.1447 main 1248 1248 P________PP___ SH021955 -7.95750 60.1650 -1 -7.95750 60.1650 TC 25 -7.95557 60.1041 1 2 127
1954284S07076 1955 78 SI MM NOT_NAMED 1954-10-15 06:00:00 TS -8.00000 60.2000 main 1258 1248 O________OO___ jtwc_sh SH021955 -8.00000 60.2000 -1 -8.00000 60.2000 TC 25 -8.00000 60.2000 1 1 231
1954284S07076 1955 78 SI MM NOT_NAMED 1954-10-15 09:00:00 TS -8.00710 60.0834 main 1248 1228 P________PP___ SH021955 -8.00750 60.0875 -1 -8.00750 60.0875 TC 25 -8.00629 60.0753 1 3 270
1954284S07076 1955 78 SI MM NOT_NAMED 1954-10-15 12:00:00 TS -8.00002 59.9008 main 1228 1209 O________OP___ jtwc_sh SH021955 -8.00000 59.9000 -1 -8.00000 59.9000 TC 25 -8.00006 59.9024 1 4 272
1954284S07076 1955 78 SI MM NOT_NAMED 1954-10-15 15:00:00 TS -7.99293 59.7061 main 1209 1190 P________PP___ SH021955 -7.99250 59.7075 -1 -7.99250 59.7075 TC 25 -7.99379 59.7034 1 4 270
1954284S07076 1955 78 SI MM NOT_NAMED 1954-10-15 18:00:00 TS -8.00000 59.5000 main 1190 1170 O________OO___ jtwc_sh SH021955 -8.00000 59.5000 -1 -8.00000 59.5000 TC 25 -8.00000 59.5000 1 4 263
1954284S07076 1955 78 SI MM NOT_NAMED 1954-10-15 21:00:00 TS -8.04020 59.3020 main 1170 1146 P________PP___ SH021955 -8.04250 59.2925 -1 -8.04250 59.2925 TC 25 -8.03561 59.3210 1 4 256
1954284S07076 1955 78 SI MM NOT_NAMED 1954-10-16 00:00:00 TS -8.09500 59.1142 main 1146 1136 O________OP___ jtwc_sh SH021955 -8.10000 59.1000 -1 -8.10000 59.1000 TC 25 -8.08499 59.1425 1 4 253
1954284S07076 1955 78 SI MM NOT_NAMED 1954-10-16 03:00:00 TS -8.14728 58.9509 main 1136 1121 P________PP___ SH021955 -8.14999 58.9425 -1 -8.14999 58.9425 TC 30 -8.14187 58.9678 1 2 243
1954284S07076 1955 78 SI MM NOT_NAMED 1954-10-16 06:00:00 TS -8.20000 58.9077 reunion main 1121 1111 O____O___OO___ jtwc_sh SH021955 -8.20000 58.8000 -1 -8.20000 60.2000 99 9.90000 -8.20000 58.8000 TC 35 -8.20000 58.8000 2 2 229
1954284S07076 1955 78 SI MM NOT_NAMED 1954-10-16 09:00:00 TS -8.24779 58.8337 main 1111 1096 P____P___PP___ SH021955 -8.25000 58.6500 -1 -8.22648 59.9505 99 -8.25000 58.6500 TC 35 -8.25403 58.6428 2 2 241
1954284S07076 1955 78 SI MM NOT_NAMED 1954-10-16 12:00:00 TS -8.29301 58.7379 main 1096 1087 O____P___OP___ jtwc_sh SH021955 -8.30000 58.5000 -1 -8.25510 59.6997 99 -8.30000 58.5000 TC 35 -8.30746 58.4925 2 2 247
1954284S07076 1955 78 SI MM NOT_NAMED 1954-10-16 15:00:00 TS -8.33633 58.6231 main 1087 1071 P____P___PP___ SH021955 -8.34999 58.3500 -1 -8.28816 59.4464 99 -8.34999 58.3500 TC 35 -8.35716 58.3459 2 3 253
1954284S07076 1955 78 SI MM NOT_NAMED 1954-10-16 18:00:00 TS -8.38199 58.4474 main 1062 1052 O____P___OO___ jtwc_sh SH021955 -8.40000 58.2000 -1 -8.32794 59.1895 99 -8.40000 58.2000 TC 35 -8.40000 58.2000 2 4 255
1954284S07076 1955 78 SI MM NOT_NAMED 1954-10-16 21:00:00 TS -8.43097 58.2714 main 1052 1028 P____P___PP___ SH021955 -8.45749 58.0500 -1 -8.37674 58.9276 99 -8.45749 58.0500 TC 35 -8.43215 58.0581 2 4 255
1954284S07076 1955 78 SI MM NOT_NAMED 1954-10-17 00:00:00 TS -8.47357 58.0936 main 1028 1009 O____P___OP___ jtwc_sh SH021955 -8.50000 57.9000 -1 -8.43682 58.6596 99 -8.50000 57.9000 TC 35 -8.45744 57.9150 2 4 259
1954284S07076 1955 78 SI MM NOT_NAMED 1954-10-17 03:00:00 TS -8.50112 57.9159 main 1009 990 P____P___PP___ SH021955 -8.50748 57.7575 -1 -8.51049 58.3841 99 -8.50748 57.7575 TC 35 -8.47901 57.7644 2 4 262
1954284S07076 1955 78 SI MM NOT_NAMED 1954-10-17 06:00:00 TS -8.52500 57.7250 reunion main 990 965 O____O___OO___ jtwc_sh SH021955 -8.50000 57.6000 -1 -8.60000 58.1000 99 9.90000 -8.50000 57.6000 TC 35 -8.50000 57.6000 2 4 262
1954284S07076 1955 78 SI MM NOT_NAMED 1954-10-17 09:00:00 TS -8.55510 57.5089 main 965 946 P____P___PP___ SH021955 -8.49250 57.4075 -1 -8.70635 57.8062 99 -8.49250 57.4075 TC 35 -8.52906 57.4144 2 4 261
1954284S07076 1955 78 SI MM NOT_NAMED 1954-10-17 12:00:00 TS -8.59572 57.2794 main 946 922 O____P___OP___ jtwc_sh SH021955 -8.50000 57.2000 -1 -8.82537 57.5027 99 -8.50000 57.2000 TC 35 -8.55750 57.2150 2 5 257
1954284S07076 1955 78 SI MM NOT_NAMED 1954-10-17 15:00:00 TS -8.65844 57.0495 main 913 894 P____P___PP___ SH021955 -8.54999 57.0000 -1 -8.95159 57.1899 99 -8.54999 57.0000 TC 35 -8.58218 57.0081 2 5 255
1954284S07076 1955 78 SI MM NOT_NAMED 1954-10-17 18:00:00 TS -8.71989 56.8171 main 894 870 O____P___OO___ jtwc_sh SH021955 -8.60000 56.8000 -1 -9.07957 56.8682 99 -8.60000 56.8000 TC 35 -8.60000 56.8000 2 5 258
1954284S07076 1955 78 SI MM NOT_NAMED 1954-10-17 21:00:00 TS -8.75240 56.5916 main 870 851 P____P___PP___ SH021955 -8.60749 56.6000 -1 -9.20386 56.5380 99 -8.60749 56.6000 TC 35 -8.59078 56.6283 2 5 263
1954284S07076 1955 78 SI MM NOT_NAMED 1954-10-18 00:00:00 TS -8.77406 56.3630 main 851 824 O____P___OP___ jtwc_sh SH021955 -8.60000 56.4000 -1 -9.31899 56.1996 99 -8.60000 56.4000 TC 35 -8.57725 56.4523 2 5 265
1954284S07076 1955 78 SI MM NOT_NAMED 1954-10-18 03:00:00 TS -8.79114 56.1334 main 824 806 P____P___PP___ SH021955 -8.58496 56.2150 -1 -9.41952 55.8535 99 -8.58496 56.2150 TC 35 -8.57510 56.2501 2 5 264
1954284S07076 1955 78 SI MM NOT_NAMED 1954-10-18 06:00:00 TS -8.82500 55.8750 reunion main 806 772 O____O___OO___ jtwc_sh SH021955 -8.60000 56.0000 -1 -9.50000 55.5000 99 9.90000 -8.60000 56.0000 TC 35 -8.60000 56.0000 2 6 259
1954284S07076 1955 78 SI MM NOT_NAMED 1954-10-18 09:00:00 TS -8.90015 55.5755 main 772 728 P____P___PP___ SH021955 -8.68495 55.7375 -1 -9.55129 55.1434 99 -8.68495 55.7375 TC 35 -8.67940 55.6836 2 7 255
1954284S07076 1955 78 SI MM NOT_NAMED 1954-10-18 12:00:00 TS -8.99245 55.2240 main 728 684 O____P___OP___ jtwc_sh SH021955 -8.80000 55.4000 -1 -9.58480 54.7784 99 -8.80000 55.4000 TC 35 -8.78502 55.3177 2 8 257
1954284S07076 1955 78 SI MM NOT_NAMED 1954-10-18 15:00:00 TS -9.07882 54.8137 main 684 647 P____P___PP___ SH021955 -8.90754 54.9650 -1 -9.60209 54.4067 99 -8.90754 54.9650 TC 35 -8.89811 54.9179 2 8 259
1954284S07076 1955 78 SI MM NOT_NAMED 1954-10-18 18:00:00 TS -9.15118 54.3824 main 641 604 O____P___OO___ jtwc_sh SH021955 -9.00000 54.5000 -1 -9.60471 54.0296 99 -9.00000 54.5000 TC 35 -9.00000 54.5000 2 8 262
1954284S07076 1955 78 SI MM NOT_NAMED 1954-10-18 21:00:00 TS -9.19435 53.9855 main 604 568 P____P___PP___ SH021955 -9.05741 54.1000 -1 -9.59424 53.6489 99 -9.05741 54.1000 TC 35 -9.06833 54.0934 2 8 265
1954284S07076 1955 78 SI MM NOT_NAMED 1954-10-19 00:00:00 TS -9.22365 53.5846 main 568 527 O____P___OP___ jtwc_sh SH021955 -9.10000 53.7000 -1 -9.57224 53.2661 99 -9.10000 53.7000 TC 35 -9.12235 53.6724 2 8 266
1954284S07076 1955 78 SI MM NOT_NAMED 1954-10-19 03:00:00 TS -9.25511 53.1595 main 527 485 P____P___PP___ SH021955 -9.15747 53.2575 -1 -9.54030 52.8826 99 -9.15747 53.2575 TC 35 -9.16518 53.2402 2 9 267
1954284S07076 1955 78 SI MM NOT_NAMED 1954-10-19 06:00:00 TS -9.27500 52.7250 reunion main 485 453 O____O___OO___ jtwc_sh SH021955 -9.20000 52.8000 -1 -9.50000 52.5000 99 9.90000 -9.20000 52.8000 TC 35 -9.20000 52.8000 2 9 269
1954284S07076 1955 78 SI MM NOT_NAMED 1954-10-19 09:00:00 TS -9.26789 52.2927 main 453 423 P____P___PP___ SH021955 -9.19994 52.3499 -1 -9.43974 52.1017 99 -9.19994 52.3499 TC 35 -9.23195 52.3693 2 9 271
1954284S07076 1955 78 SI MM NOT_NAMED 1954-10-19 12:00:00 TS -9.25589 51.8576 main 423 388 O____P___OP___ jtwc_sh SH021955 -9.20000 51.9000 -1 -9.36641 51.7006 99 -9.20000 51.9000 TC 35 -9.25715 51.9299 2 9 270
1954284S07076 1955 78 SI MM NOT_NAMED 1954-10-19 15:00:00 TS -9.26621 51.4230 main 388 364 P____P___PP___ SH021955 -9.24992 51.4575 -1 -9.28621 51.3014 99 -9.24992 51.4575 TC 35 -9.27878 51.4755 2 9 269
1954284S07076 1955 78 SI MM NOT_NAMED 1954-10-19 18:00:00 TS -9.27633 50.9772 main 364 339 O____P___OO___ jtwc_sh SH021955 -9.30000 51.0000 -1 -9.20534 50.9090 99 -9.30000 51.0000 TC 35 -9.30000 51.0000 2 9 270
1954284S07076 1955 78 SI MM NOT_NAMED 1954-10-19 21:00:00 TS -9.26328 50.5142 main 339 332 P____P___PP___ SH021955 -9.29993 50.5149 -1 -9.13003 50.5280 99 -9.29993 50.5149 TC 30 -9.32324 50.4992 2 9 272
1954284S07076 1955 78 SI MM NOT_NAMED 1954-10-20 00:00:00 TS -9.23930 50.0450 main 333 326 O____P___OP___ jtwc_sh SH021955 -9.30000 50.0000 -1 -9.06652 50.1630 99 -9.30000 50.0000 TC 25 -9.34825 49.9776 2 9 273
1954284S07076 1955 78 SI MM NOT_NAMED 1954-10-20 03:00:00 TS -9.21833 49.5990 main 326 324 P____P___PP___ SH021955 -9.33768 49.4576 -1 -9.02109 49.8188 99 -9.33768 49.4576 TC 25 -9.37413 49.4423 2 8 275
1954284S07076 1955 78 SI MM NOT_NAMED 1954-10-20 06:00:00 TS -9.17143 49.2429 reunion main 324 324 O____O___OO___ jtwc_sh SH021955 -9.40000 48.9000 -1 -9.00000 49.5000 99 9.90000 -9.40000 48.9000 TC 25 -9.40000 48.9000 1 4 298
1954284S07076 1955 78 SI MM NOT_NAMED 1954-10-20 09:00:00 NR -9.03648 49.2464 main 347 336 _____P________ SH021955 -1 -9.03648 49.2464 99 TC 1 2 289
1954284S07076 1955 78 SI MM NOT_NAMED 1954-10-20 12:00:00 NR -9.09794 49.0213 main 336 326 _____P________ -1 -9.09794 49.0213 99 1 5 252
1954284S07076 1955 78 SI MM NOT_NAMED 1954-10-20 15:00:00 NR -9.17744 48.8145 main 327 320 _____P________ -1 -9.17744 48.8145 99 1 4 247
1954284S07076 1955 78 SI MM NOT_NAMED 1954-10-20 18:00:00 NR -9.26797 48.6158 main 320 314 _____P________ -1 -9.26797 48.6158 99 4 245
1954284S07076 1955 78 SI MM NOT_NAMED 1954-10-20 21:00:00 NR -9.36253 48.4152 main 314 314 _____P________ -1 -9.36253 48.4152 99 4 245
1954284S07076 1955 78 SI MM NOT_NAMED 1954-10-21 00:00:00 NR -9.45410 48.2024 main 311 311 _____P________ -1 -9.45410 48.2024 99 5 249
1954284S07076 1955 78 SI MM NOT_NAMED 1954-10-21 03:00:00 NR -9.53562 47.9674 main 319 313 _____P________ -1 -9.53562 47.9674 99 5 254
1954284S07076 1955 78 SI MM NOT_NAMED 1954-10-21 06:00:00 NR -9.60000 47.7000 reunion main 324 324 _____O________ -1 -9.60000 47.7000 99 9.90000 6 262
1954284S07076 1955 78 SI MM NOT_NAMED 1954-10-21 09:00:00 NR -9.62643 47.3363 main 348 348 _____P________ -1 -9.62643 47.3363 99 8 267
1954284S07076 1955 78 SI MM NOT_NAMED 1954-10-21 12:00:00 NR -9.63875 46.9395 main 376 376 _____P________ -1 -9.63875 46.9395 99 8 269
1954284S07076 1955 78 SI MM NOT_NAMED 1954-10-21 15:00:00 NR -9.63838 46.5210 main 406 406 _____P________ -1 -9.63838 46.5210 99 8 271
1954284S07076 1955 78 SI MM NOT_NAMED 1954-10-21 18:00:00 NR -9.62681 46.0922 main 437 437 _____P________ -1 -9.62681 46.0922 99 8 272
1954284S07076 1955 78 SI MM NOT_NAMED 1954-10-21 21:00:00 NR -9.60557 45.6643 main 469 469 _____P________ -1 -9.60557 45.6643 99 8 273
1954284S07076 1955 78 SI MM NOT_NAMED 1954-10-22 00:00:00 NR -9.57624 45.2488 main 509 489 _____P________ -1 -9.57624 45.2488 99 8 275
1954284S07076 1955 78 SI MM NOT_NAMED 1954-10-22 03:00:00 NR -9.54049 44.8569 main 489 447 _____P________ -1 -9.54049 44.8569 99 7 276
1954284S07076 1955 78 SI MM NOT_NAMED 1954-10-22 06:00:00 NR -9.50000 44.5000 reunion main 447 416 _____O________ -1 -9.50000 44.5000 99 9.90000 7 277
1954284S07076 1955 78 SI MM NOT_NAMED 1954-10-22 09:00:00 NR -9.45628 44.1865 main 416 389 _____P________ -1 -9.45628 44.1865 99 6 279
1954284S07076 1955 78 SI MM NOT_NAMED 1954-10-22 12:00:00 NR -9.40999 43.9134 main 389 369 _____P________ -1 -9.40999 43.9134 99 5 281
1954284S07076 1955 78 SI MM NOT_NAMED 1954-10-22 15:00:00 NR -9.36156 43.6750 main 369 354 _____P________ -1 -9.36156 43.6750 99 5 283
1954284S07076 1955 78 SI MM NOT_NAMED 1954-10-22 18:00:00 NR -9.31135 43.4654 main 354 334 _____P________ -1 -9.31135 43.4654 99 4 285
1954284S07076 1955 78 SI MM NOT_NAMED 1954-10-22 21:00:00 NR -9.25975 43.2788 main 334 321 _____P________ -1 -9.25975 43.2788 99 4 287
1954284S07076 1955 78 SI MM NOT_NAMED 1954-10-23 00:00:00 NR -9.20710 43.1096 main 321 312 _____P________ -1 -9.20710 43.1096 99 3 288
1954284S07076 1955 78 SI MM NOT_NAMED 1954-10-23 03:00:00 NR -9.15375 42.9519 main 312 300 _____P________ -1 -9.15375 42.9519 99 3 289
1954284S07076 1955 78 SI MM NOT_NAMED 1954-10-23 06:00:00 NR -9.10000 42.8000 reunion main 300 _____O________ -1 -9.10000 42.8000 99 9.90000 3 290

IBTrACS Databaseについて

本データベースは、米国NOAAが公開する1842年以降の世界の熱帯低気圧のベストトラックデータアーカイブInternational Best Track Archive for Climate Stewardship (IBTrACS)を、ウェブで閲覧しやすい形式に変換したものです。

最終更新日:2021-12-06